sensor_id;sensor_type;location;lat;lon;timestamp;P1;durP1;ratioP1;P2;durP2;ratioP2
59458;SDS011;45269;43.568;22.244;2023-06-14T00:01:16;11.70;;;7.70;;
59458;SDS011;45269;43.568;22.244;2023-06-14T00:03:42;8.70;;;7.25;;
59458;SDS011;45269;43.568;22.244;2023-06-14T00:06:07;8.18;;;6.55;;
59458;SDS011;45269;43.568;22.244;2023-06-14T00:08:32;9.07;;;6.55;;
59458;SDS011;45269;43.568;22.244;2023-06-14T00:10:58;10.98;;;7.00;;
59458;SDS011;45269;43.568;22.244;2023-06-14T00:13:23;11.20;;;7.03;;
59458;SDS011;45269;43.568;22.244;2023-06-14T00:15:49;8.50;;;6.75;;
59458;SDS011;45269;43.568;22.244;2023-06-14T00:18:14;11.95;;;6.80;;
59458;SDS011;45269;43.568;22.244;2023-06-14T00:20:40;9.90;;;6.85;;
59458;SDS011;45269;43.568;22.244;2023-06-14T00:23:07;10.20;;;6.93;;
59458;SDS011;45269;43.568;22.244;2023-06-14T00:25:33;12.55;;;6.53;;
59458;SDS011;45269;43.568;22.244;2023-06-14T00:27:58;12.82;;;6.80;;
59458;SDS011;45269;43.568;22.244;2023-06-14T00:30:24;10.52;;;6.53;;
59458;SDS011;45269;43.568;22.244;2023-06-14T00:32:49;12.40;;;6.40;;
59458;SDS011;45269;43.568;22.244;2023-06-14T00:35:15;10.68;;;6.43;;
59458;SDS011;45269;43.568;22.244;2023-06-14T00:37:40;9.65;;;7.25;;
59458;SDS011;45269;43.568;22.244;2023-06-14T00:40:06;8.93;;;6.82;;
59458;SDS011;45269;43.568;22.244;2023-06-14T00:42:31;15.73;;;9.38;;
59458;SDS011;45269;43.568;22.244;2023-06-14T00:44:57;17.15;;;11.50;;
59458;SDS011;45269;43.568;22.244;2023-06-14T00:47:22;23.02;;;12.48;;
59458;SDS011;45269;43.568;22.244;2023-06-14T00:49:48;17.08;;;11.43;;
59458;SDS011;45269;43.568;22.244;2023-06-14T00:52:15;17.08;;;11.57;;
59458;SDS011;45269;43.568;22.244;2023-06-14T00:54:40;20.35;;;10.88;;
59458;SDS011;45269;43.568;22.244;2023-06-14T00:57:07;26.42;;;11.23;;
59458;SDS011;45269;43.568;22.244;2023-06-14T00:59:32;15.80;;;11.30;;
59458;SDS011;45269;43.568;22.244;2023-06-14T01:01:58;19.63;;;11.10;;
59458;SDS011;45269;43.568;22.244;2023-06-14T01:04:23;24.50;;;10.30;;
59458;SDS011;45269;43.568;22.244;2023-06-14T01:09:25;22.27;;;10.35;;
59458;SDS011;45269;43.568;22.244;2023-06-14T01:12:00;19.42;;;10.68;;
59458;SDS011;45269;43.568;22.244;2023-06-14T01:14:29;19.30;;;10.32;;
59458;SDS011;45269;43.568;22.244;2023-06-14T01:16:56;19.85;;;11.88;;
59458;SDS011;45269;43.568;22.244;2023-06-14T01:19:25;20.60;;;12.20;;
59458;SDS011;45269;43.568;22.244;2023-06-14T01:21:51;20.00;;;12.25;;
59458;SDS011;45269;43.568;22.244;2023-06-14T01:24:16;31.50;;;12.27;;
59458;SDS011;45269;43.568;22.244;2023-06-14T01:26:44;61.47;;;14.75;;
59458;SDS011;45269;43.568;22.244;2023-06-14T01:29:11;60.90;;;13.48;;
59458;SDS011;45269;43.568;22.244;2023-06-14T01:31:41;38.75;;;13.82;;
59458;SDS011;45269;43.568;22.244;2023-06-14T01:34:07;18.17;;;11.77;;
59458;SDS011;45269;43.568;22.244;2023-06-14T01:36:33;21.38;;;12.85;;
59458;SDS011;45269;43.568;22.244;2023-06-14T01:39:00;22.92;;;13.40;;
59458;SDS011;45269;43.568;22.244;2023-06-14T01:41:26;29.30;;;13.68;;
59458;SDS011;45269;43.568;22.244;2023-06-14T01:43:52;25.95;;;12.82;;
59458;SDS011;45269;43.568;22.244;2023-06-14T01:46:17;21.63;;;12.35;;
59458;SDS011;45269;43.568;22.244;2023-06-14T01:48:44;18.33;;;12.40;;
59458;SDS011;45269;43.568;22.244;2023-06-14T01:51:09;23.05;;;12.82;;
59458;SDS011;45269;43.568;22.244;2023-06-14T01:53:35;24.27;;;12.38;;
59458;SDS011;45269;43.568;22.244;2023-06-14T01:56:01;14.73;;;12.30;;
59458;SDS011;45269;43.568;22.244;2023-06-14T01:58:26;21.10;;;11.20;;
59458;SDS011;45269;43.568;22.244;2023-06-14T02:00:52;15.07;;;11.27;;
59458;SDS011;45269;43.568;22.244;2023-06-14T02:03:20;32.58;;;12.80;;
59458;SDS011;45269;43.568;22.244;2023-06-14T02:05:45;22.83;;;11.27;;
59458;SDS011;45269;43.568;22.244;2023-06-14T02:08:11;44.28;;;13.95;;
59458;SDS011;45269;43.568;22.244;2023-06-14T02:10:36;35.35;;;11.95;;
59458;SDS011;45269;43.568;22.244;2023-06-14T02:13:02;173.63;;;19.13;;
59458;SDS011;45269;43.568;22.244;2023-06-14T02:15:27;11.90;;;9.25;;
59458;SDS011;45269;43.568;22.244;2023-06-14T02:17:58;22.02;;;9.70;;
59458;SDS011;45269;43.568;22.244;2023-06-14T02:20:24;13.95;;;8.10;;
59458;SDS011;45269;43.568;22.244;2023-06-14T02:22:49;10.30;;;9.15;;
59458;SDS011;45269;43.568;22.244;2023-06-14T02:25:14;25.85;;;9.93;;
59458;SDS011;45269;43.568;22.244;2023-06-14T02:27:40;18.70;;;9.95;;
59458;SDS011;45269;43.568;22.244;2023-06-14T02:30:05;24.23;;;10.43;;
59458;SDS011;45269;43.568;22.244;2023-06-14T02:32:31;10.93;;;9.75;;
59458;SDS011;45269;43.568;22.244;2023-06-14T02:34:56;33.50;;;11.57;;
59458;SDS011;45269;43.568;22.244;2023-06-14T02:37:22;21.08;;;9.88;;
59458;SDS011;45269;43.568;22.244;2023-06-14T02:39:47;30.33;;;9.77;;
59458;SDS011;45269;43.568;22.244;2023-06-14T02:42:13;24.85;;;8.90;;
59458;SDS011;45269;43.568;22.244;2023-06-14T02:44:38;36.50;;;10.73;;
59458;SDS011;45269;43.568;22.244;2023-06-14T02:47:04;25.45;;;9.18;;
59458;SDS011;45269;43.568;22.244;2023-06-14T02:49:30;34.72;;;10.10;;
59458;SDS011;45269;43.568;22.244;2023-06-14T02:51:55;43.90;;;11.30;;
59458;SDS011;45269;43.568;22.244;2023-06-14T02:54:21;21.52;;;9.88;;
59458;SDS011;45269;43.568;22.244;2023-06-14T02:56:46;19.25;;;9.13;;
59458;SDS011;45269;43.568;22.244;2023-06-14T02:59:11;16.50;;;8.60;;
59458;SDS011;45269;43.568;22.244;2023-06-14T03:01:38;38.53;;;11.15;;
59458;SDS011;45269;43.568;22.244;2023-06-14T03:04:06;41.53;;;9.60;;
59458;SDS011;45269;43.568;22.244;2023-06-14T03:06:31;14.02;;;9.25;;
59458;SDS011;45269;43.568;22.244;2023-06-14T03:08:57;38.05;;;11.20;;
59458;SDS011;45269;43.568;22.244;2023-06-14T03:11:41;14.13;;;9.32;;
59458;SDS011;45269;43.568;22.244;2023-06-14T03:14:06;11.90;;;9.65;;
59458;SDS011;45269;43.568;22.244;2023-06-14T03:16:32;13.57;;;9.65;;
59458;SDS011;45269;43.568;22.244;2023-06-14T03:18:57;39.70;;;12.95;;
59458;SDS011;45269;43.568;22.244;2023-06-14T03:21:22;26.88;;;12.18;;
59458;SDS011;45269;43.568;22.244;2023-06-14T03:23:48;21.13;;;11.95;;
59458;SDS011;45269;43.568;22.244;2023-06-14T03:26:14;86.35;;;15.10;;
59458;SDS011;45269;43.568;22.244;2023-06-14T03:28:42;18.38;;;11.70;;
59458;SDS011;45269;43.568;22.244;2023-06-14T03:31:08;25.02;;;11.68;;
59458;SDS011;45269;43.568;22.244;2023-06-14T03:33:34;18.65;;;11.70;;
59458;SDS011;45269;43.568;22.244;2023-06-14T03:35:59;26.55;;;11.50;;
59458;SDS011;45269;43.568;22.244;2023-06-14T03:38:24;19.25;;;12.02;;
59458;SDS011;45269;43.568;22.244;2023-06-14T03:40:50;15.95;;;11.68;;
59458;SDS011;45269;43.568;22.244;2023-06-14T03:43:15;17.70;;;11.52;;
59458;SDS011;45269;43.568;22.244;2023-06-14T03:45:41;17.08;;;11.07;;
59458;SDS011;45269;43.568;22.244;2023-06-14T03:48:06;18.88;;;10.18;;
59458;SDS011;45269;43.568;22.244;2023-06-14T03:50:33;16.75;;;10.23;;
59458;SDS011;45269;43.568;22.244;2023-06-14T03:52:59;15.73;;;10.10;;
59458;SDS011;45269;43.568;22.244;2023-06-14T03:55:26;47.95;;;12.02;;
59458;SDS011;45269;43.568;22.244;2023-06-14T03:57:52;27.95;;;11.10;;
59458;SDS011;45269;43.568;22.244;2023-06-14T04:00:18;12.65;;;10.95;;
59458;SDS011;45269;43.568;22.244;2023-06-14T04:02:43;26.63;;;10.95;;
59458;SDS011;45269;43.568;22.244;2023-06-14T04:05:12;18.60;;;10.15;;
59458;SDS011;45269;43.568;22.244;2023-06-14T04:07:38;14.65;;;10.70;;
59458;SDS011;45269;43.568;22.244;2023-06-14T04:10:05;15.07;;;10.48;;
59458;SDS011;45269;43.568;22.244;2023-06-14T04:12:30;17.00;;;10.45;;
59458;SDS011;45269;43.568;22.244;2023-06-14T04:14:56;15.23;;;11.10;;
59458;SDS011;45269;43.568;22.244;2023-06-14T04:17:21;12.82;;;9.98;;
59458;SDS011;45269;43.568;22.244;2023-06-14T04:19:46;11.10;;;9.35;;
59458;SDS011;45269;43.568;22.244;2023-06-14T04:22:12;16.90;;;11.13;;
59458;SDS011;45269;43.568;22.244;2023-06-14T04:24:38;12.80;;;9.80;;
59458;SDS011;45269;43.568;22.244;2023-06-14T04:27:03;12.80;;;10.93;;
59458;SDS011;45269;43.568;22.244;2023-06-14T04:29:28;13.85;;;10.20;;
59458;SDS011;45269;43.568;22.244;2023-06-14T04:31:54;14.98;;;10.30;;
59458;SDS011;45269;43.568;22.244;2023-06-14T04:34:23;12.13;;;10.00;;
59458;SDS011;45269;43.568;22.244;2023-06-14T04:36:49;14.85;;;10.13;;
59458;SDS011;45269;43.568;22.244;2023-06-14T04:39:17;11.65;;;9.80;;
59458;SDS011;45269;43.568;22.244;2023-06-14T04:41:49;12.75;;;11.23;;
59458;SDS011;45269;43.568;22.244;2023-06-14T04:44:18;17.97;;;11.63;;
59458;SDS011;45269;43.568;22.244;2023-06-14T04:46:44;11.35;;;9.98;;
59458;SDS011;45269;43.568;22.244;2023-06-14T04:49:13;14.27;;;10.57;;
59458;SDS011;45269;43.568;22.244;2023-06-14T04:51:40;11.00;;;9.75;;
59458;SDS011;45269;43.568;22.244;2023-06-14T04:54:06;9.85;;;8.90;;
59458;SDS011;45269;43.568;22.244;2023-06-14T04:56:35;11.50;;;10.07;;
59458;SDS011;45269;43.568;22.244;2023-06-14T04:59:02;10.68;;;9.60;;
59458;SDS011;45269;43.568;22.244;2023-06-14T05:01:29;11.60;;;9.68;;
59458;SDS011;45269;43.568;22.244;2023-06-14T05:03:55;11.15;;;10.05;;
59458;SDS011;45269;43.568;22.244;2023-06-14T05:06:20;12.50;;;10.77;;
59458;SDS011;45269;43.568;22.244;2023-06-14T05:08:46;11.43;;;9.65;;
59458;SDS011;45269;43.568;22.244;2023-06-14T05:11:11;8.70;;;7.88;;
59458;SDS011;45269;43.568;22.244;2023-06-14T05:13:37;9.50;;;8.68;;
59458;SDS011;45269;43.568;22.244;2023-06-14T05:16:02;9.15;;;8.35;;
59458;SDS011;45269;43.568;22.244;2023-06-14T05:18:28;9.60;;;8.07;;
59458;SDS011;45269;43.568;22.244;2023-06-14T05:20:53;7.60;;;6.82;;
59458;SDS011;45269;43.568;22.244;2023-06-14T05:23:19;7.55;;;6.75;;
59458;SDS011;45269;43.568;22.244;2023-06-14T05:25:44;7.10;;;6.47;;
59458;SDS011;45269;43.568;22.244;2023-06-14T05:28:10;8.57;;;7.63;;
59458;SDS011;45269;43.568;22.244;2023-06-14T05:30:37;8.40;;;7.60;;
59458;SDS011;45269;43.568;22.244;2023-06-14T05:33:02;12.30;;;8.80;;
59458;SDS011;45269;43.568;22.244;2023-06-14T05:35:28;19.63;;;17.10;;
59458;SDS011;45269;43.568;22.244;2023-06-14T05:37:54;11.98;;;10.02;;
59458;SDS011;45269;43.568;22.244;2023-06-14T05:40:19;14.55;;;9.45;;
59458;SDS011;45269;43.568;22.244;2023-06-14T05:42:45;13.13;;;9.05;;
59458;SDS011;45269;43.568;22.244;2023-06-14T05:45:10;9.18;;;8.43;;
59458;SDS011;45269;43.568;22.244;2023-06-14T05:47:36;9.60;;;8.25;;
59458;SDS011;45269;43.568;22.244;2023-06-14T05:50:01;10.85;;;9.35;;
59458;SDS011;45269;43.568;22.244;2023-06-14T05:52:27;11.00;;;9.27;;
59458;SDS011;45269;43.568;22.244;2023-06-14T05:54:53;13.00;;;9.35;;
59458;SDS011;45269;43.568;22.244;2023-06-14T05:57:18;10.93;;;9.07;;
59458;SDS011;45269;43.568;22.244;2023-06-14T05:59:43;9.23;;;8.43;;
59458;SDS011;45269;43.568;22.244;2023-06-14T06:02:09;8.90;;;8.00;;
59458;SDS011;45269;43.568;22.244;2023-06-14T06:04:34;8.40;;;7.65;;
59458;SDS011;45269;43.568;22.244;2023-06-14T06:07:00;8.90;;;8.07;;
59458;SDS011;45269;43.568;22.244;2023-06-14T06:09:25;9.68;;;8.77;;
59458;SDS011;45269;43.568;22.244;2023-06-14T06:11:51;8.98;;;8.18;;
59458;SDS011;45269;43.568;22.244;2023-06-14T06:14:16;9.15;;;8.23;;
59458;SDS011;45269;43.568;22.244;2023-06-14T06:16:41;8.63;;;7.78;;
59458;SDS011;45269;43.568;22.244;2023-06-14T06:19:07;8.90;;;8.00;;
59458;SDS011;45269;43.568;22.244;2023-06-14T06:21:32;10.00;;;8.45;;
59458;SDS011;45269;43.568;22.244;2023-06-14T06:23:57;10.23;;;9.10;;
59458;SDS011;45269;43.568;22.244;2023-06-14T06:26:23;12.80;;;8.65;;
59458;SDS011;45269;43.568;22.244;2023-06-14T06:28:48;12.23;;;10.90;;
59458;SDS011;45269;43.568;22.244;2023-06-14T06:31:13;9.55;;;8.68;;
59458;SDS011;45269;43.568;22.244;2023-06-14T06:33:40;10.13;;;9.10;;
59458;SDS011;45269;43.568;22.244;2023-06-14T06:36:05;9.65;;;8.52;;
59458;SDS011;45269;43.568;22.244;2023-06-14T06:38:31;8.60;;;7.75;;
59458;SDS011;45269;43.568;22.244;2023-06-14T06:40:56;8.55;;;7.78;;
59458;SDS011;45269;43.568;22.244;2023-06-14T06:43:21;7.88;;;7.22;;
59458;SDS011;45269;43.568;22.244;2023-06-14T06:45:47;7.97;;;7.18;;
59458;SDS011;45269;43.568;22.244;2023-06-14T06:48:12;8.60;;;7.28;;
59458;SDS011;45269;43.568;22.244;2023-06-14T06:50:37;6.60;;;5.97;;
59458;SDS011;45269;43.568;22.244;2023-06-14T06:53:03;6.95;;;6.25;;
59458;SDS011;45269;43.568;22.244;2023-06-14T06:55:29;6.50;;;5.97;;
59458;SDS011;45269;43.568;22.244;2023-06-14T06:57:55;7.35;;;6.75;;
59458;SDS011;45269;43.568;22.244;2023-06-14T07:00:20;7.47;;;6.45;;
59458;SDS011;45269;43.568;22.244;2023-06-14T07:02:46;6.60;;;6.00;;
59458;SDS011;45269;43.568;22.244;2023-06-14T07:05:11;7.45;;;6.75;;
59458;SDS011;45269;43.568;22.244;2023-06-14T07:07:37;7.30;;;6.60;;
59458;SDS011;45269;43.568;22.244;2023-06-14T07:10:02;6.55;;;6.05;;
59458;SDS011;45269;43.568;22.244;2023-06-14T07:12:29;6.32;;;5.82;;
59458;SDS011;45269;43.568;22.244;2023-06-14T07:14:55;5.47;;;5.05;;
59458;SDS011;45269;43.568;22.244;2023-06-14T07:17:21;5.78;;;5.28;;
59458;SDS011;45269;43.568;22.244;2023-06-14T07:19:46;5.53;;;5.10;;
59458;SDS011;45269;43.568;22.244;2023-06-14T07:22:11;5.63;;;5.13;;
59458;SDS011;45269;43.568;22.244;2023-06-14T07:24:37;5.20;;;4.80;;
59458;SDS011;45269;43.568;22.244;2023-06-14T07:27:02;5.18;;;4.68;;
59458;SDS011;45269;43.568;22.244;2023-06-14T07:29:29;5.45;;;4.50;;
59458;SDS011;45269;43.568;22.244;2023-06-14T07:31:54;6.15;;;5.60;;
59458;SDS011;45269;43.568;22.244;2023-06-14T07:34:19;6.75;;;5.15;;
59458;SDS011;45269;43.568;22.244;2023-06-14T07:36:45;5.57;;;5.07;;
59458;SDS011;45269;43.568;22.244;2023-06-14T07:39:11;5.10;;;4.70;;
59458;SDS011;45269;43.568;22.244;2023-06-14T07:41:37;5.25;;;4.82;;
59458;SDS011;45269;43.568;22.244;2023-06-14T07:44:02;4.93;;;4.55;;
59458;SDS011;45269;43.568;22.244;2023-06-14T07:46:27;5.15;;;4.75;;
59458;SDS011;45269;43.568;22.244;2023-06-14T07:48:53;6.35;;;5.85;;
59458;SDS011;45269;43.568;22.244;2023-06-14T07:51:18;5.65;;;5.25;;
59458;SDS011;45269;43.568;22.244;2023-06-14T07:53:43;4.82;;;4.43;;
59458;SDS011;45269;43.568;22.244;2023-06-14T07:56:09;4.97;;;4.57;;
59458;SDS011;45269;43.568;22.244;2023-06-14T07:58:34;8.40;;;4.78;;
59458;SDS011;45269;43.568;22.244;2023-06-14T08:00:59;5.60;;;5.10;;
59458;SDS011;45269;43.568;22.244;2023-06-14T08:03:26;5.82;;;5.22;;
59458;SDS011;45269;43.568;22.244;2023-06-14T08:05:52;5.07;;;4.68;;
59458;SDS011;45269;43.568;22.244;2023-06-14T08:08:17;5.55;;;5.05;;
59458;SDS011;45269;43.568;22.244;2023-06-14T08:10:43;4.72;;;4.35;;
59458;SDS011;45269;43.568;22.244;2023-06-14T08:13:09;5.43;;;4.57;;
59458;SDS011;45269;43.568;22.244;2023-06-14T08:15:35;4.50;;;4.10;;
59458;SDS011;45269;43.568;22.244;2023-06-14T08:18:00;4.45;;;4.03;;
59458;SDS011;45269;43.568;22.244;2023-06-14T08:20:26;4.30;;;4.00;;
59458;SDS011;45269;43.568;22.244;2023-06-14T08:22:51;4.93;;;4.28;;
59458;SDS011;45269;43.568;22.244;2023-06-14T08:25:21;4.55;;;4.15;;
59458;SDS011;45269;43.568;22.244;2023-06-14T08:27:47;4.18;;;3.88;;
59458;SDS011;45269;43.568;22.244;2023-06-14T08:30:12;4.18;;;3.88;;
59458;SDS011;45269;43.568;22.244;2023-06-14T08:32:38;4.65;;;4.25;;
59458;SDS011;45269;43.568;22.244;2023-06-14T08:35:03;4.47;;;4.07;;
59458;SDS011;45269;43.568;22.244;2023-06-14T08:37:29;4.20;;;3.90;;
59458;SDS011;45269;43.568;22.244;2023-06-14T08:39:55;4.68;;;3.83;;
59458;SDS011;45269;43.568;22.244;2023-06-14T08:42:21;4.57;;;4.18;;
59458;SDS011;45269;43.568;22.244;2023-06-14T08:44:49;4.00;;;3.70;;
59458;SDS011;45269;43.568;22.244;2023-06-14T08:47:14;3.65;;;3.35;;
59458;SDS011;45269;43.568;22.244;2023-06-14T08:49:40;3.40;;;3.13;;
59458;SDS011;45269;43.568;22.244;2023-06-14T08:52:10;4.10;;;3.50;;
59458;SDS011;45269;43.568;22.244;2023-06-14T08:54:37;4.40;;;3.78;;
59458;SDS011;45269;43.568;22.244;2023-06-14T08:57:09;4.15;;;3.75;;
59458;SDS011;45269;43.568;22.244;2023-06-14T08:59:37;3.50;;;3.20;;
59458;SDS011;45269;43.568;22.244;2023-06-14T09:02:08;3.53;;;3.22;;
59458;SDS011;45269;43.568;22.244;2023-06-14T09:07:05;3.38;;;3.10;;
59458;SDS011;45269;43.568;22.244;2023-06-14T09:09:31;3.55;;;3.17;;
59458;SDS011;45269;43.568;22.244;2023-06-14T09:11:57;2.50;;;2.40;;
59458;SDS011;45269;43.568;22.244;2023-06-14T09:14:25;3.58;;;3.25;;
59458;SDS011;45269;43.568;22.244;2023-06-14T09:16:54;3.55;;;3.35;;
59458;SDS011;45269;43.568;22.244;2023-06-14T09:19:23;5.18;;;3.75;;
59458;SDS011;45269;43.568;22.244;2023-06-14T09:21:48;4.07;;;3.33;;
59458;SDS011;45269;43.568;22.244;2023-06-14T09:24:14;3.25;;;3.05;;
59458;SDS011;45269;43.568;22.244;2023-06-14T09:26:40;4.15;;;3.78;;
59458;SDS011;45269;43.568;22.244;2023-06-14T09:29:05;3.80;;;3.50;;
59458;SDS011;45269;43.568;22.244;2023-06-14T09:31:31;4.15;;;3.85;;
59458;SDS011;45269;43.568;22.244;2023-06-14T09:33:57;3.95;;;3.65;;
59458;SDS011;45269;43.568;22.244;2023-06-14T09:36:24;3.70;;;3.40;;
59458;SDS011;45269;43.568;22.244;2023-06-14T09:38:56;3.10;;;2.90;;
59458;SDS011;45269;43.568;22.244;2023-06-14T09:41:32;3.42;;;3.22;;
59458;SDS011;45269;43.568;22.244;2023-06-14T09:43:59;3.85;;;3.55;;
59458;SDS011;45269;43.568;22.244;2023-06-14T09:46:28;3.70;;;3.40;;
59458;SDS011;45269;43.568;22.244;2023-06-14T09:48:54;4.20;;;3.90;;
59458;SDS011;45269;43.568;22.244;2023-06-14T09:51:20;4.47;;;4.18;;
59458;SDS011;45269;43.568;22.244;2023-06-14T09:53:48;4.07;;;3.63;;
59458;SDS011;45269;43.568;22.244;2023-06-14T09:56:14;4.60;;;4.07;;
59458;SDS011;45269;43.568;22.244;2023-06-14T09:58:41;4.45;;;4.00;;
59458;SDS011;45269;43.568;22.244;2023-06-14T10:01:06;4.50;;;4.10;;
59458;SDS011;45269;43.568;22.244;2023-06-14T10:03:33;4.38;;;4.05;;
59458;SDS011;45269;43.568;22.244;2023-06-14T10:05:59;4.10;;;3.80;;
59458;SDS011;45269;43.568;22.244;2023-06-14T10:08:27;3.87;;;3.57;;
59458;SDS011;45269;43.568;22.244;2023-06-14T10:10:55;3.88;;;3.58;;
59458;SDS011;45269;43.568;22.244;2023-06-14T10:13:21;3.83;;;3.50;;
59458;SDS011;45269;43.568;22.244;2023-06-14T10:18:36;3.17;;;2.88;;
59458;SDS011;45269;43.568;22.244;2023-06-14T10:21:08;4.43;;;4.00;;
59458;SDS011;45269;43.568;22.244;2023-06-14T10:23:40;8.93;;;3.70;;
59458;SDS011;45269;43.568;22.244;2023-06-14T10:26:07;3.53;;;3.30;;
59458;SDS011;45269;43.568;22.244;2023-06-14T10:28:32;4.00;;;3.70;;
59458;SDS011;45269;43.568;22.244;2023-06-14T10:33:29;4.35;;;3.88;;
59458;SDS011;45269;43.568;22.244;2023-06-14T10:36:07;5.97;;;3.17;;
59458;SDS011;45269;43.568;22.244;2023-06-14T10:38:32;4.13;;;3.72;;
59458;SDS011;45269;43.568;22.244;2023-06-14T10:40:59;4.05;;;3.65;;
59458;SDS011;45269;43.568;22.244;2023-06-14T10:43:25;5.32;;;4.28;;
59458;SDS011;45269;43.568;22.244;2023-06-14T10:48:36;3.90;;;3.63;;
59458;SDS011;45269;43.568;22.244;2023-06-14T10:51:05;3.95;;;3.65;;
59458;SDS011;45269;43.568;22.244;2023-06-14T10:53:36;3.53;;;3.33;;
59458;SDS011;45269;43.568;22.244;2023-06-14T10:56:07;4.35;;;4.05;;
59458;SDS011;45269;43.568;22.244;2023-06-14T10:58:33;4.07;;;3.77;;
59458;SDS011;45269;43.568;22.244;2023-06-14T11:00:58;4.60;;;4.20;;
59458;SDS011;45269;43.568;22.244;2023-06-14T11:03:35;4.10;;;3.70;;
59458;SDS011;45269;43.568;22.244;2023-06-14T11:06:12;4.28;;;3.97;;
59458;SDS011;45269;43.568;22.244;2023-06-14T11:11:22;3.70;;;3.50;;
59458;SDS011;45269;43.568;22.244;2023-06-14T11:13:50;4.72;;;4.22;;
59458;SDS011;45269;43.568;22.244;2023-06-14T11:16:16;5.22;;;4.40;;
59458;SDS011;45269;43.568;22.244;2023-06-14T11:18:42;4.43;;;4.10;;
59458;SDS011;45269;43.568;22.244;2023-06-14T11:21:09;4.78;;;4.38;;
59458;SDS011;45269;43.568;22.244;2023-06-14T11:23:37;4.65;;;4.28;;
59458;SDS011;45269;43.568;22.244;2023-06-14T11:26:02;4.67;;;4.27;;
59458;SDS011;45269;43.568;22.244;2023-06-14T11:28:38;4.65;;;4.25;;
59458;SDS011;45269;43.568;22.244;2023-06-14T11:31:05;5.65;;;3.92;;
59458;SDS011;45269;43.568;22.244;2023-06-14T11:33:30;4.45;;;4.05;;
59458;SDS011;45269;43.568;22.244;2023-06-14T11:35:55;4.55;;;4.15;;
59458;SDS011;45269;43.568;22.244;2023-06-14T11:38:21;6.63;;;3.88;;
59458;SDS011;45269;43.568;22.244;2023-06-14T11:40:46;4.75;;;4.28;;
59458;SDS011;45269;43.568;22.244;2023-06-14T11:43:11;4.50;;;4.10;;
59458;SDS011;45269;43.568;22.244;2023-06-14T11:45:38;4.40;;;3.97;;
59458;SDS011;45269;43.568;22.244;2023-06-14T11:48:04;5.97;;;4.20;;
59458;SDS011;45269;43.568;22.244;2023-06-14T11:50:29;5.82;;;3.85;;
59458;SDS011;45269;43.568;22.244;2023-06-14T11:52:55;6.00;;;4.20;;
59458;SDS011;45269;43.568;22.244;2023-06-14T11:55:24;4.70;;;4.05;;
59458;SDS011;45269;43.568;22.244;2023-06-14T11:57:49;4.25;;;3.95;;
59458;SDS011;45269;43.568;22.244;2023-06-14T12:00:15;4.30;;;4.00;;
59458;SDS011;45269;43.568;22.244;2023-06-14T12:02:41;5.47;;;4.22;;
59458;SDS011;45269;43.568;22.244;2023-06-14T12:05:07;6.70;;;3.90;;
59458;SDS011;45269;43.568;22.244;2023-06-14T12:07:38;4.57;;;4.05;;
59458;SDS011;45269;43.568;22.244;2023-06-14T12:10:07;3.95;;;3.65;;
59458;SDS011;45269;43.568;22.244;2023-06-14T12:12:36;4.40;;;3.45;;
59458;SDS011;45269;43.568;22.244;2023-06-14T12:15:03;4.40;;;4.03;;
59458;SDS011;45269;43.568;22.244;2023-06-14T12:17:31;5.70;;;3.63;;
59458;SDS011;45269;43.568;22.244;2023-06-14T12:19:57;4.28;;;3.85;;
59458;SDS011;45269;43.568;22.244;2023-06-14T12:22:22;4.07;;;3.78;;
59458;SDS011;45269;43.568;22.244;2023-06-14T12:24:48;4.22;;;3.80;;
59458;SDS011;45269;43.568;22.244;2023-06-14T12:27:13;4.93;;;4.45;;
59458;SDS011;45269;43.568;22.244;2023-06-14T12:29:43;6.05;;;4.22;;
59458;SDS011;45269;43.568;22.244;2023-06-14T12:32:09;3.97;;;3.67;;
59458;SDS011;45269;43.568;22.244;2023-06-14T12:34:34;3.97;;;3.67;;
59458;SDS011;45269;43.568;22.244;2023-06-14T12:37:00;3.75;;;3.15;;
59458;SDS011;45269;43.568;22.244;2023-06-14T12:39:26;6.15;;;3.50;;
59458;SDS011;45269;43.568;22.244;2023-06-14T12:41:51;4.28;;;3.95;;
59458;SDS011;45269;43.568;22.244;2023-06-14T12:44:16;3.42;;;3.22;;
59458;SDS011;45269;43.568;22.244;2023-06-14T12:46:42;3.70;;;3.40;;
59458;SDS011;45269;43.568;22.244;2023-06-14T12:49:09;4.35;;;3.95;;
59458;SDS011;45269;43.568;22.244;2023-06-14T12:51:35;5.60;;;3.60;;
59458;SDS011;45269;43.568;22.244;2023-06-14T12:54:00;3.70;;;3.40;;
59458;SDS011;45269;43.568;22.244;2023-06-14T12:56:25;4.43;;;2.97;;
59458;SDS011;45269;43.568;22.244;2023-06-14T12:58:51;3.15;;;2.95;;
59458;SDS011;45269;43.568;22.244;2023-06-14T13:01:16;3.47;;;3.25;;
59458;SDS011;45269;43.568;22.244;2023-06-14T13:03:42;3.50;;;3.20;;
59458;SDS011;45269;43.568;22.244;2023-06-14T13:06:07;3.85;;;3.55;;
59458;SDS011;45269;43.568;22.244;2023-06-14T13:08:33;3.20;;;3.00;;
59458;SDS011;45269;43.568;22.244;2023-06-14T13:10:58;3.58;;;3.28;;
59458;SDS011;45269;43.568;22.244;2023-06-14T13:13:23;3.53;;;3.03;;
59458;SDS011;45269;43.568;22.244;2023-06-14T13:15:49;3.42;;;3.13;;
59458;SDS011;45269;43.568;22.244;2023-06-14T13:18:15;4.13;;;3.22;;
59458;SDS011;45269;43.568;22.244;2023-06-14T13:20:41;6.68;;;3.78;;
59458;SDS011;45269;43.568;22.244;2023-06-14T13:23:07;4.57;;;3.30;;
59458;SDS011;45269;43.568;22.244;2023-06-14T13:25:34;6.20;;;3.53;;
59458;SDS011;45269;43.568;22.244;2023-06-14T13:28:00;3.88;;;3.58;;
59458;SDS011;45269;43.568;22.244;2023-06-14T13:30:25;4.63;;;3.97;;
59458;SDS011;45269;43.568;22.244;2023-06-14T13:32:51;4.22;;;3.92;;
59458;SDS011;45269;43.568;22.244;2023-06-14T13:35:17;5.65;;;4.35;;
59458;SDS011;45269;43.568;22.244;2023-06-14T13:37:43;3.95;;;3.65;;
59458;SDS011;45269;43.568;22.244;2023-06-14T13:40:08;4.45;;;4.05;;
59458;SDS011;45269;43.568;22.244;2023-06-14T13:42:33;4.47;;;4.07;;
59458;SDS011;45269;43.568;22.244;2023-06-14T13:44:59;4.40;;;4.00;;
59458;SDS011;45269;43.568;22.244;2023-06-14T13:47:24;4.65;;;3.65;;
59458;SDS011;45269;43.568;22.244;2023-06-14T13:49:49;5.40;;;4.57;;
59458;SDS011;45269;43.568;22.244;2023-06-14T13:52:15;5.18;;;4.68;;
59458;SDS011;45269;43.568;22.244;2023-06-14T13:54:40;5.20;;;4.80;;
59458;SDS011;45269;43.568;22.244;2023-06-14T13:57:07;5.60;;;4.78;;
59458;SDS011;45269;43.568;22.244;2023-06-14T13:59:32;5.03;;;4.53;;
59458;SDS011;45269;43.568;22.244;2023-06-14T14:01:58;5.20;;;4.70;;
59458;SDS011;45269;43.568;22.244;2023-06-14T14:04:23;5.18;;;4.68;;
59458;SDS011;45269;43.568;22.244;2023-06-14T14:06:49;4.72;;;4.15;;
59458;SDS011;45269;43.568;22.244;2023-06-14T14:09:14;4.72;;;4.32;;
59458;SDS011;45269;43.568;22.244;2023-06-14T14:11:40;5.30;;;4.68;;
59458;SDS011;45269;43.568;22.244;2023-06-14T14:14:07;5.13;;;4.72;;
59458;SDS011;45269;43.568;22.244;2023-06-14T14:16:33;9.07;;;4.72;;
59458;SDS011;45269;43.568;22.244;2023-06-14T14:19:00;4.72;;;4.28;;
59458;SDS011;45269;43.568;22.244;2023-06-14T14:21:25;4.75;;;4.45;;
59458;SDS011;45269;43.568;22.244;2023-06-14T14:23:50;4.95;;;4.35;;
59458;SDS011;45269;43.568;22.244;2023-06-14T14:26:16;4.85;;;4.45;;
59458;SDS011;45269;43.568;22.244;2023-06-14T14:28:41;4.45;;;4.15;;
59458;SDS011;45269;43.568;22.244;2023-06-14T14:31:06;4.78;;;4.40;;
59458;SDS011;45269;43.568;22.244;2023-06-14T14:33:32;4.63;;;4.22;;
59458;SDS011;45269;43.568;22.244;2023-06-14T14:35:57;5.10;;;4.70;;